Latest Weather Observations for Green Cape

IDN60801

Issued at 5:05 pm EST Thursday 31 July 2014 (issued every 30 minutes, with the page automatically refreshed every 10 minutes)

About weather observations | Map of weather stations | Latest weather observations for NSW | Other Formats
Station Details ID: 069137 Name: GREEN CAPE AWS Lat: -37.26 Lon: 150.05 Height: 19.4 m
Data from the previous 72 hours. | See also: Recent months at Green Cape
Date/Time
EST
Temp
°C
App
Temp
°C
Dew
Point
Rel
Hum
%
Delta-T
°C
Wind Press
QNH
hPa
Press
MSL
hPa
Rain
since 9 am
mm
Dir
 
Spd
km/h
Gust
km/h
Spd
kts
Gust
kts
31/05:00pm 20.9 13.8 -1.0 23 9.6 N 26 39 14 21 995.7 995.7 0.0
31/04:30pm 20.9 14.7 2.2 29 8.8 N 24 37 13 20 995.7 - 0.0
31/04:00pm 21.9 15.0 0.4 24 9.8 N 26 48 14 26 996.1 996.1 0.0
31/03:30pm 22.5 14.8 -0.3 22 10.2 NNW 30 48 16 26 996.3 - 0.0
31/03:02pm 22.7 15.7 2.2 26 9.7 N 28 50 15 27 996.2 - 0.0
31/03:00pm 22.9 16.5 0.7 23 10.3 NNW 24 48 13 26 996.5 996.5 0.0
31/02:42pm 22.8 15.1 0.0 22 10.3 NNW 30 52 16 28 996.6 - 0.0
31/02:30pm 22.7 14.9 1.7 25 9.8 N 32 46 17 25 996.7 - 0.0
31/02:00pm 22.1 13.6 3.3 29 9.1 N 37 57 20 31 996.8 996.8 0.0
31/01:38pm 22.4 13.5 3.0 28 9.3 N 39 63 21 34 997.1 - 0.0
31/01:30pm 22.3 13.9 3.9 30 8.9 N 37 50 20 27 997.4 - 0.0
31/01:23pm 22.1 13.9 4.7 32 8.6 N 37 56 20 30 997.7 - 0.0
31/01:00pm 18.3 8.4 11.1 63 3.9 N 54 70 29 38 997.9 997.9 0.0
31/12:30pm 18.1 8.1 10.7 62 4.0 N 54 65 29 35 998.6 - 0.0
31/12:00pm 17.9 8.9 11.5 66 3.5 N 50 61 27 33 999.6 999.6 0.0
31/11:30am 17.7 9.3 11.0 65 3.6 N 46 56 25 30 1000.7 - 0.0
31/11:00am 17.7 10.6 11.0 65 3.6 N 39 48 21 26 1002.0 1002.0 0.0
31/10:30am 17.8 12.5 11.4 66 3.5 N 30 37 16 20 1003.1 - 0.0
31/10:00am 17.4 14.1 11.7 69 3.1 N 20 28 11 15 1003.7 1003.7 0.0
31/09:30am 16.7 13.1 10.5 67 3.3 N 20 24 11 13 1004.3 - 0.0
31/09:00am 15.6 12.3 9.5 67 3.2 N 17 19 9 10 1004.9 1004.9 0.0
31/08:30am 15.1 11.1 9.0 67 3.1 N 20 24 11 13 1005.2 - 0.0
31/08:00am 14.4 10.2 8.4 67 3.0 N 20 24 11 13 1005.6 1005.6 0.0
31/07:30am 13.8 9.1 7.8 67 3.0 N 22 26 12 14 1005.7 - 0.0
31/07:00am 12.9 8.9 8.2 73 2.3 N 19 22 10 12 1006.0 1006.0 0.0
31/06:30am 12.5 9.5 7.8 73 2.3 N 13 15 7 8 1006.3 - 0.0
31/06:00am 12.4 9.0 7.7 73 2.3 N 15 19 8 10 1006.3 1006.3 0.0
31/05:30am 12.4 9.7 7.5 72 2.4 N 11 15 6 8 1006.4 - 0.0
31/05:00am 12.6 10.7 6.6 67 2.9 N 6 7 3 4 1006.9 1006.9 0.0
31/04:30am 12.6 10.9 7.7 72 2.4 NW 6 9 3 5 1007.0 - 0.0
31/04:00am 12.2 10.4 7.9 75 2.1 WNW 7 9 4 5 1007.4 1007.4 0.0
31/03:30am 13.0 10.6 7.2 68 2.8 N 9 13 5 7 1007.6 - 0.0
31/03:00am 13.2 11.1 6.5 64 3.2 N 7 9 4 5 1008.0 1008.0 0.0
31/02:30am 13.9 11.8 5.8 58 3.8 NNW 6 11 3 6 1008.4 - 0.0
31/02:00am 14.3 11.0 6.2 58 3.9 N 13 15 7 8 1008.8 1008.8 0.0
31/01:30am 14.6 11.1 7.4 62 3.5 N 15 17 8 9 1008.9 - 0.0
31/01:00am 15.2 11.6 8.2 63 3.5 N 17 20 9 11 1009.1 1009.1 0.0
31/12:30am 15.2 12.0 8.4 64 3.4 N 15 19 8 10 1009.2 - 0.0
31/12:00am 14.3 12.4 9.1 71 2.7 N 9 13 5 7 1009.7 1009.7 0.0
 
Date/Time
EST
Temp
°C
App
Temp
°C
Dew
Point
Rel
Hum
%
Delta-T
°C
Wind Press
QNH
hPa
Press
MSL
hPa
Rain
since 9 am
mm
Dir
 
Spd
km/h
Gust
km/h
Spd
kts
Gust
kts
30/11:30pm 15.1 11.9 8.3 64 3.4 N 15 20 8 11 1009.9 - 0.0
30/11:00pm 15.3 12.3 9.4 68 3.0 N 15 19 8 10 1010.3 1010.3 0.0
30/10:30pm 15.7 11.5 8.2 61 3.8 N 20 24 11 13 1010.1 - 0.0
30/10:00pm 15.8 11.3 6.3 53 4.6 N 19 22 10 12 1010.2 1010.2 0.0
30/09:30pm 16.6 12.4 5.9 49 5.2 NNW 17 20 9 11 1010.4 - 0.0
30/09:00pm 15.6 13.3 7.6 59 4.0 N 9 11 5 6 1010.6 1010.6 0.0
30/08:30pm 17.6 13.9 6.2 47 5.6 NNW 15 20 8 11 1010.7 - 0.0
30/08:00pm 17.2 13.5 6.1 48 5.4 NNW 15 19 8 10 1010.7 1010.7 0.0
30/07:30pm 17.9 14.2 6.4 47 5.7 NW 15 20 8 11 1010.7 - 0.0
30/07:00pm 18.0 13.9 6.2 46 5.8 NNW 17 22 9 12 1010.4 1010.4 0.0
30/06:30pm 18.3 14.2 6.2 45 6.0 NW 17 22 9 12 1010.2 - 0.0
30/06:00pm 18.6 14.3 6.8 46 5.9 WNW 19 26 10 14 1010.1 1010.1 0.0
30/05:30pm 18.7 15.6 7.2 47 5.8 NW 13 17 7 9 1009.9 - 0.0
30/05:00pm 19.4 16.3 7.2 45 6.2 NW 13 22 7 12 1009.5 1009.5 0.0
30/04:30pm 19.8 17.5 9.1 50 5.6 WNW 11 17 6 9 1009.3 - 0.0
30/04:00pm 18.5 17.3 12.9 70 3.2 N 11 13 6 7 1009.1 1009.1 0.0
30/03:30pm 18.7 18.1 13.6 72 2.9 N 9 13 5 7 1009.4 - 0.0
30/03:00pm 19.7 18.5 12.9 65 3.8 NNE 11 19 6 10 1009.3 1009.3 0.0
30/02:30pm 19.6 17.6 12.8 65 3.8 N 15 19 8 10 1009.3 - 0.0
30/02:00pm 19.5 17.4 12.5 64 3.9 NNE 15 17 8 9 1009.5 1009.5 0.0
30/01:30pm 19.1 16.8 13.1 68 3.4 N 17 19 9 10 1009.6 - 0.0
30/01:00pm 18.7 16.6 12.5 67 3.5 N 15 19 8 10 1009.9 1009.9 0.0
30/12:30pm 18.2 15.7 12.4 69 3.2 N 17 20 9 11 1010.3 - 0.0
30/12:00pm 18.6 16.0 12.1 66 3.6 NNE 17 20 9 11 1010.5 1010.5 0.0
30/11:30am 19.9 16.3 10.0 53 5.3 N 19 24 10 13 1010.9 - 0.0
30/11:00am 20.6 17.6 9.2 48 6.1 N 15 20 8 11 1011.4 1011.4 0.0
30/10:30am 19.7 16.6 11.5 59 4.5 N 19 26 10 14 1011.7 - 0.0
30/10:00am 19.0 15.5 8.6 51 5.4 N 17 22 9 12 1011.7 1011.7 0.0
30/09:30am 19.0 15.3 8.1 49 5.6 N 17 24 9 13 1011.9 - 0.0
30/09:00am 18.4 15.0 7.5 49 5.5 NNW 15 22 8 12 1011.9 1011.9 0.0
30/08:30am 17.1 12.8 7.2 52 4.9 NNW 19 26 10 14 1011.9 - 0.0
30/08:00am 16.6 12.3 7.0 53 4.8 NNW 19 28 10 15 1011.7 1011.7 0.0
30/07:30am 16.1 12.6 7.1 55 4.5 NNW 15 22 8 12 1011.4 - 0.0
30/07:00am 15.6 11.3 7.1 57 4.2 N 19 20 10 11 1011.1 1011.1 0.0
30/06:30am 15.1 12.0 9.0 67 3.1 N 15 17 8 9 1010.9 - 0.0
30/06:00am 15.2 12.3 8.2 63 3.5 N 13 19 7 10 1010.6 1010.6 0.0
30/05:30am 14.9 11.4 7.2 60 3.8 N 15 17 8 9 1010.3 - 0.0
30/05:00am 14.6 11.2 7.6 63 3.5 N 15 17 8 9 1010.0 1010.0 0.0
30/04:30am 14.7 10.6 7.7 63 3.5 N 19 22 10 12 1009.7 - 0.0
30/04:00am 14.8 10.9 6.9 59 3.9 N 17 20 9 11 1009.4 1009.4 0.0
30/03:30am 15.2 11.3 7.3 59 3.9 N 17 20 9 11 1009.3 - 0.0
30/03:00am 15.2 11.7 8.7 65 3.3 N 17 20 9 11 1009.3 1009.3 0.0
30/02:30am 15.2 11.6 8.2 63 3.5 N 17 20 9 11 1009.2 - 0.0
30/02:00am 15.6 10.9 6.1 53 4.6 N 20 24 11 13 1009.1 1009.1 0.0
30/01:30am 15.8 11.4 6.5 54 4.5 N 19 22 10 12 1009.3 - 0.0
30/01:00am 16.7 13.5 6.8 52 4.9 N 13 19 7 10 1009.4 1009.4 0.0
30/12:30am 15.5 11.6 7.0 57 4.2 N 17 20 9 11 1009.2 - 0.0
30/12:00am 16.1 13.5 6.0 51 4.9 N 9 19 5 10 1009.3 1009.3 0.0
 
Date/Time
EST
Temp
°C
App
Temp
°C
Dew
Point
Rel
Hum
%
Delta-T
°C
Wind Press
QNH
hPa
Press
MSL
hPa
Rain
since 9 am
mm
Dir
 
Spd
km/h
Gust
km/h
Spd
kts
Gust
kts
29/11:30pm 16.0 11.2 9.0 63 3.6 NE 24 33 13 18 1008.8 - 0.0
29/11:00pm 15.7 12.6 7.2 57 4.2 N 13 17 7 9 1008.9 1008.9 0.0
29/10:30pm 15.9 12.3 6.6 54 4.6 N 15 19 8 10 1009.0 - 0.0
29/10:00pm 15.5 12.6 6.5 55 4.4 NNE 11 15 6 8 1009.4 1009.4 0.0
29/09:30pm 15.2 13.1 6.5 56 4.2 N 7 15 4 8 1009.3 - 0.0
29/09:00pm 14.8 12.2 7.8 63 3.5 NNE 11 13 6 7 1008.9 1008.9 0.0
29/08:30pm 14.7 12.8 7.7 63 3.5 N 7 11 4 6 1008.9 - 0.0
29/08:00pm 15.6 12.4 5.2 50 4.9 N 11 15 6 8 1008.8 1008.8 0.0
29/07:30pm 17.8 14.6 2.9 37 6.9 NNW 9 13 5 7 1008.8 - 0.0
29/07:00pm 17.2 14.0 3.1 39 6.5 NNW 9 15 5 8 1008.5 1008.5 0.0
29/06:30pm 17.7 15.8 2.8 37 6.8 WNW 2 6 1 3 1008.4 - 0.0
29/06:00pm 16.9 16.0 6.1 49 5.3 CALM 0 6 0 3 1008.1 1008.1 0.0
29/05:30pm 17.1 14.6 3.8 41 6.2 W 6 7 3 4 1007.8 - 0.0
29/05:00pm 17.7 15.0 3.9 40 6.5 W 7 15 4 8 1007.9 1007.9 0.0
29/04:30pm 17.7 17.0 6.9 49 5.4 CALM 0 4 0 2 1007.5 - 0.0
29/04:00pm 18.2 14.8 6.1 45 6.0 W 13 15 7 8 1007.3 1007.3 0.0
29/03:30pm 18.8 13.9 5.3 41 6.6 W 20 26 11 14 1007.2 - 0.0
29/03:00pm 19.8 15.0 2.6 32 8.0 W 17 20 9 11 1006.9 1006.9 0.0
29/02:30pm 19.8 16.5 4.3 36 7.4 NNW 11 20 6 11 1007.3 - 0.0
29/02:00pm 20.5 18.8 8.2 45 6.4 WNW 7 11 4 6 1007.3 1007.3 0.0
29/01:30pm 20.0 18.6 12.3 61 4.3 N 11 15 6 8 1007.4 - 0.0
29/01:00pm 18.2 16.4 12.0 67 3.4 N 13 13 7 7 1007.2 1007.2 0.0
29/12:30pm 17.7 14.5 10.1 61 4.0 N 17 20 9 11 1007.8 - 0.0
29/12:00pm 17.2 12.9 9.4 60 4.1 N 22 26 12 14 1008.2 1008.2 0.0
29/11:30am 16.7 12.3 8.9 60 4.0 N 22 26 12 14 1009.2 - 0.0
29/11:00am 16.2 11.4 8.9 62 3.8 N 24 28 13 15 1010.0 1010.0 0.0
29/10:30am 15.5 10.5 8.0 61 3.8 N 24 28 13 15 1010.1 - 0.0
29/10:00am 15.5 9.8 8.3 62 3.6 N 28 32 15 17 1010.0 1010.0 0.0
29/09:30am 14.1 8.4 6.9 62 3.5 N 26 30 14 16 1010.1 - 0.0
29/09:00am 14.6 9.4 7.2 61 3.6 N 24 28 13 15 1010.6 1010.6 0.0
29/08:30am 13.1 7.0 6.5 64 3.2 N 28 33 15 18 1010.6 - 0.0
29/08:00am 13.3 8.4 5.2 58 3.8 N 20 28 11 15 1010.5 1010.5 0.0
29/07:30am 12.2 8.7 5.4 63 3.2 N 13 17 7 9 1011.0 - 0.0
29/07:00am 11.9 8.0 5.5 65 3.0 N 15 19 8 10 1011.1 1011.1 0.0
29/06:30am 11.5 8.6 6.4 71 2.4 N 11 13 6 7 1010.9 - 0.0
29/06:00am 12.0 9.3 5.6 65 3.0 N 9 15 5 8 1011.1 1011.1 0.0
29/05:30am 11.6 9.0 6.3 70 2.5 N 9 11 5 6 1011.2 - 0.0
29/05:00am 11.3 8.9 5.2 66 2.8 N 7 11 4 6 1011.1 1011.1 0.0
29/04:30am 11.4 9.4 4.4 62 3.2 N 4 6 2 3 1011.2 - 0.0
29/04:00am 11.6 9.9 5.7 67 2.7 NW 4 7 2 4 1011.6 1011.6 0.0
29/03:30am 11.0 9.0 4.2 63 3.0 N 4 6 2 3 1011.8 - 0.0
29/03:00am 11.7 9.8 6.8 72 2.3 W 6 7 3 4 1011.9 1011.9 0.0
29/02:30am 13.2 9.9 2.7 49 4.6 NNW 9 11 5 6 1012.2 - 0.0
29/02:00am 12.9 9.9 4.1 55 4.0 NW 9 17 5 9 1012.4 1012.4 0.0
29/01:30am 13.5 9.2 3.0 49 4.7 NNW 15 22 8 12 1012.7 - 0.0
29/01:00am 13.7 8.4 2.9 48 4.8 NNW 20 24 11 13 1012.6 1012.6 0.0
29/12:30am 13.6 8.3 3.1 49 4.7 N 20 26 11 14 1012.7 - 0.0
29/12:00am 13.5 8.3 3.6 51 4.5 N 20 24 11 13 1012.9 1012.9 0.0
 
Date/Time
EST
Temp
°C
App
Temp
°C
Dew
Point
Rel
Hum
%
Delta-T
°C
Wind Press
QNH
hPa
Press
MSL
hPa
Rain
since 9 am
mm
Dir
 
Spd
km/h
Gust
km/h
Spd
kts
Gust
kts
28/11:30pm 13.7 8.6 4.0 52 4.4 N 20 28 11 15 1013.2 - 0.0
28/11:00pm 13.6 8.2 4.5 54 4.2 N 22 28 12 15 1013.3 1013.3 0.0
28/10:30pm 13.6 8.3 5.0 56 4.0 N 22 26 12 14 1013.6 - 0.0
28/10:00pm 13.8 8.6 5.7 58 3.8 N 22 32 12 17 1013.8 1013.8 0.0
28/09:30pm 13.8 9.5 5.2 56 4.0 N 17 20 9 11 1014.0 - 0.0
28/09:00pm 13.9 8.8 5.8 58 3.8 N 22 28 12 15 1014.1 1014.1 0.0
28/08:30pm 13.9 9.6 7.2 64 3.3 N 19 22 10 12 1014.2 - 0.0
28/08:00pm 14.1 10.5 8.3 68 2.9 N 17 20 9 11 1014.2 1014.2 0.0
28/07:30pm 14.4 10.7 9.4 72 2.6 N 19 24 10 13 1014.2 - 0.0
28/07:00pm 15.2 10.7 10.2 72 2.6 N 24 32 13 17 1014.3 1014.3 0.0
28/06:30pm 15.5 10.7 9.0 65 3.3 N 24 33 13 18 1014.3 - 0.0
28/06:00pm 15.6 10.6 9.5 67 3.2 N 26 35 14 19 1014.0 1014.0 0.0
28/05:30pm 15.5 11.6 10.7 73 2.5 N 22 28 12 15 1014.1 - 0.0

Other Formats:

Comma delimited format used in spreadsheet applications
http://www.bom.gov.au/fwo/IDN60801/IDN60801.94934.axf

JavaScript Object Notation format (JSON) in row-major order
http://www.bom.gov.au/fwo/IDN60801/IDN60801.94934.json